createdAt,value
2023-03-27T00:00:23.077Z,6.45
2023-03-27T00:02:49.996Z,6.48
2023-03-27T00:05:16.922Z,6.49
2023-03-27T00:07:45.257Z,6.52
2023-03-27T00:10:12.575Z,6.55
2023-03-27T00:12:39.277Z,6.57
2023-03-27T00:15:05.984Z,6.54
2023-03-27T00:17:33.705Z,6.53
2023-03-27T00:20:00.232Z,6.52
2023-03-27T00:22:26.664Z,6.55
2023-03-27T00:24:53.105Z,6.57
2023-03-27T00:27:20.015Z,6.60
2023-03-27T00:29:46.459Z,6.60
2023-03-27T00:32:12.937Z,6.58
2023-03-27T00:34:39.393Z,6.52
2023-03-27T00:37:06.750Z,6.56
2023-03-27T00:39:33.187Z,6.58
2023-03-27T00:41:59.745Z,6.57
2023-03-27T00:44:28.272Z,6.60
2023-03-27T00:46:56.999Z,6.63
2023-03-27T00:49:25.605Z,6.60
2023-03-27T00:51:53.135Z,6.54
2023-03-27T00:54:26.449Z,6.51
2023-03-27T00:56:55.647Z,6.46
2023-03-27T00:59:24.424Z,6.49
2023-03-27T01:01:51.314Z,6.53
2023-03-27T01:04:21.446Z,6.56
2023-03-27T01:06:50.223Z,6.58
2023-03-27T01:09:20.232Z,6.59
2023-03-27T01:12:06.737Z,6.60
2023-03-27T01:14:46.843Z,6.62
2023-03-27T01:17:32.452Z,6.62
2023-03-27T01:20:18.128Z,6.64
2023-03-27T01:22:44.649Z,6.63
2023-03-27T01:25:40.668Z,6.65
2023-03-27T01:28:14.217Z,6.67
2023-03-27T01:30:53.642Z,6.69
2023-03-27T01:33:32.507Z,6.68
2023-03-27T01:35:59.018Z,6.69
2023-03-27T01:38:28.684Z,6.68
2023-03-27T01:40:55.363Z,6.66
2023-03-27T01:43:30.448Z,6.66
2023-03-27T01:46:01.541Z,6.64
2023-03-27T01:48:41.274Z,6.62
2023-03-27T01:51:27.953Z,6.63
2023-03-27T01:54:15.423Z,6.66
2023-03-27T01:56:53.688Z,6.67
2023-03-27T01:59:23.220Z,6.70
2023-03-27T02:01:59.564Z,6.68
2023-03-27T02:04:28.825Z,6.69
2023-03-27T02:06:59.120Z,6.69
2023-03-27T02:09:33.704Z,6.69
2023-03-27T02:12:05.412Z,6.72
2023-03-27T02:14:36.020Z,6.72
2023-03-27T02:17:07.442Z,6.72
2023-03-27T02:19:36.026Z,6.72
2023-03-27T02:22:03.604Z,6.73
2023-03-27T02:24:30.782Z,6.72
2023-03-27T02:27:07.752Z,6.73
2023-03-27T02:29:39.989Z,6.74
2023-03-27T02:32:15.611Z,6.71
2023-03-27T02:34:54.068Z,6.73
2023-03-27T02:37:37.523Z,6.74
2023-03-27T02:40:19.245Z,6.74
2023-03-27T02:42:45.666Z,6.75
2023-03-27T02:45:17.969Z,6.77
2023-03-27T02:47:52.717Z,6.77
2023-03-27T02:50:21.910Z,6.77
2023-03-27T02:52:52.267Z,6.76
2023-03-27T02:55:24.103Z,6.77
2023-03-27T02:57:53.911Z,6.77
2023-03-27T03:00:25.933Z,6.78
2023-03-27T03:02:54.439Z,6.80
2023-03-27T03:05:22.244Z,6.80
2023-03-27T03:07:48.932Z,6.77
2023-03-27T03:10:16.030Z,6.77
2023-03-27T03:12:42.587Z,6.77
2023-03-27T03:15:09.256Z,6.79
2023-03-27T03:17:35.760Z,6.81
2023-03-27T03:20:02.266Z,6.82
2023-03-27T03:22:28.702Z,6.81
2023-03-27T03:24:55.142Z,6.82
2023-03-27T03:27:22.465Z,6.86
2023-03-27T03:29:48.977Z,6.85
2023-03-27T03:32:15.543Z,6.83
2023-03-27T03:34:46.640Z,6.85
2023-03-27T03:37:13.215Z,6.84
2023-03-27T03:39:39.693Z,6.87
2023-03-27T03:42:06.387Z,6.89
2023-03-27T03:44:34.595Z,6.89
2023-03-27T03:47:01.057Z,6.88
2023-03-27T03:49:27.476Z,6.87
2023-03-27T03:52:03.202Z,6.83
2023-03-27T03:54:31.477Z,6.84
2023-03-27T03:56:58.342Z,6.85
2023-03-27T03:59:24.921Z,6.83
2023-03-27T04:01:51.399Z,6.82
2023-03-27T04:04:17.839Z,6.81
2023-03-27T04:06:45.258Z,6.80
2023-03-27T04:09:12.340Z,6.81
2023-03-27T04:11:38.778Z,6.85
2023-03-27T04:14:05.213Z,6.87
2023-03-27T04:16:31.759Z,6.89
2023-03-27T04:18:58.232Z,6.90
2023-03-27T04:21:26.865Z,6.90
2023-03-27T04:23:53.402Z,6.83
2023-03-27T04:26:26.525Z,6.76
2023-03-27T04:28:54.198Z,6.78
2023-03-27T04:31:21.017Z,6.80
2023-03-27T04:33:52.459Z,6.81
2023-03-27T04:36:19.175Z,6.82
2023-03-27T04:38:45.745Z,6.82
2023-03-27T04:41:12.280Z,6.72
2023-03-27T04:43:41.891Z,6.73
2023-03-27T04:46:08.670Z,6.78
2023-03-27T04:48:37.676Z,6.85
2023-03-27T04:51:05.145Z,6.81
2023-03-27T04:53:32.353Z,6.74
2023-03-27T04:55:58.847Z,6.75
2023-03-27T04:58:28.478Z,6.77
2023-03-27T05:00:56.442Z,6.80
2023-03-27T05:03:27.944Z,6.82
2023-03-27T05:05:54.516Z,6.85
2023-03-27T05:08:21.000Z,6.84
2023-03-27T05:10:47.649Z,6.84
2023-03-27T05:13:14.167Z,6.84
2023-03-27T05:15:40.730Z,6.84
2023-03-27T05:18:09.119Z,6.84
2023-03-27T05:20:36.279Z,6.84
2023-03-27T05:23:02.797Z,6.85
2023-03-27T05:25:32.140Z,6.86
2023-03-27T05:27:59.798Z,6.88
2023-03-27T05:30:27.038Z,6.87
2023-03-27T05:32:53.905Z,6.88
2023-03-27T05:35:21.732Z,6.92
2023-03-27T05:37:49.061Z,6.94
2023-03-27T05:40:16.447Z,6.97
2023-03-27T05:42:45.959Z,6.95
2023-03-27T05:45:13.173Z,6.94
2023-03-27T05:47:44.207Z,6.95
2023-03-27T05:50:11.006Z,6.99
2023-03-27T05:52:37.613Z,6.93
2023-03-27T05:55:04.699Z,6.86
2023-03-27T05:57:31.437Z,6.82
2023-03-27T05:59:58.047Z,6.84
2023-03-27T06:02:25.399Z,6.88
2023-03-27T06:04:52.278Z,6.94
2023-03-27T06:07:18.731Z,6.97
2023-03-27T06:09:45.322Z,6.96
2023-03-27T06:12:11.769Z,7.00
2023-03-27T06:14:38.204Z,7.02
2023-03-27T06:17:04.670Z,6.97
2023-03-27T06:19:31.164Z,6.92
2023-03-27T06:21:57.667Z,6.82
2023-03-27T06:24:24.106Z,6.78
2023-03-27T06:26:51.054Z,6.76
2023-03-27T06:29:18.268Z,6.80
2023-03-27T06:31:44.871Z,6.86
2023-03-27T06:34:15.127Z,6.93
2023-03-27T06:36:41.691Z,6.98
2023-03-27T06:39:08.262Z,6.98
2023-03-27T06:41:34.681Z,7.02
2023-03-27T06:44:01.574Z,7.04
2023-03-27T06:46:38.925Z,7.06
2023-03-27T06:49:11.822Z,7.11
2023-03-27T06:51:38.269Z,7.13
2023-03-27T06:54:04.839Z,7.14
2023-03-27T06:56:31.487Z,7.14
2023-03-27T06:58:57.983Z,7.15
2023-03-27T07:01:24.537Z,7.16
2023-03-27T07:03:51.000Z,7.18
2023-03-27T07:06:19.326Z,7.18
2023-03-27T07:08:47.750Z,7.21
2023-03-27T07:11:15.801Z,7.22
2023-03-27T07:13:42.596Z,7.16
2023-03-27T07:16:11.454Z,7.10
2023-03-27T07:18:37.960Z,7.13
2023-03-27T07:21:04.519Z,7.18
2023-03-27T07:23:31.435Z,7.23
2023-03-27T07:25:58.760Z,7.27
2023-03-27T07:28:25.466Z,7.29
2023-03-27T07:30:51.981Z,7.27
2023-03-27T07:33:18.538Z,7.24
2023-03-27T07:35:46.081Z,7.15
2023-03-27T07:38:12.832Z,7.17
2023-03-27T07:40:40.796Z,7.13
2023-03-27T07:43:07.641Z,7.17
2023-03-27T07:45:34.954Z,7.13
2023-03-27T07:48:05.220Z,7.05
2023-03-27T07:50:31.681Z,7.03
2023-03-27T07:52:58.265Z,6.88
2023-03-27T07:55:27.849Z,6.86
2023-03-27T07:58:01.796Z,6.82
2023-03-27T08:00:29.854Z,6.79
2023-03-27T08:03:04.272Z,6.72
2023-03-27T08:05:30.866Z,6.72
2023-03-27T08:07:57.303Z,6.64
2023-03-27T08:10:23.905Z,6.55
2023-03-27T08:12:50.423Z,6.52
2023-03-27T08:15:17.425Z,6.42
2023-03-27T08:17:44.104Z,6.38
2023-03-27T08:20:15.154Z,6.35
2023-03-27T08:22:41.671Z,6.35
2023-03-27T08:25:08.651Z,6.39
2023-03-27T08:27:35.154Z,6.35
2023-03-27T08:30:02.854Z,6.29
2023-03-27T08:32:29.486Z,6.27
2023-03-27T08:34:56.552Z,6.25
2023-03-27T08:37:23.006Z,6.25
2023-03-27T08:39:49.474Z,6.25
2023-03-27T08:42:19.282Z,6.27
2023-03-27T08:44:46.742Z,6.21
2023-03-27T08:47:19.458Z,6.17
2023-03-27T08:49:52.707Z,6.17
2023-03-27T08:52:21.993Z,6.20
2023-03-27T08:54:53.519Z,6.10
2023-03-27T08:57:21.386Z,6.08
2023-03-27T08:59:48.099Z,6.10
2023-03-27T09:02:30.106Z,6.08
2023-03-27T09:05:08.791Z,6.11
2023-03-27T09:07:44.679Z,6.14
2023-03-27T09:10:37.208Z,6.19
2023-03-27T09:13:09.646Z,6.11
2023-03-27T09:15:42.786Z,6.19
2023-03-27T09:18:24.340Z,6.28
2023-03-27T09:20:52.656Z,6.30
2023-03-27T09:23:23.552Z,6.30
2023-03-27T09:25:53.183Z,6.34
2023-03-27T09:28:21.601Z,6.40
2023-03-27T09:30:48.765Z,6.38
2023-03-27T09:33:15.973Z,6.39
2023-03-27T09:35:42.634Z,6.38
2023-03-27T09:38:27.230Z,6.32
2023-03-27T09:41:23.499Z,6.29
2023-03-27T09:43:53.634Z,6.31
2023-03-27T09:46:21.608Z,6.30
2023-03-27T09:49:11.777Z,6.33
2023-03-27T09:51:47.189Z,6.39
2023-03-27T09:54:15.151Z,6.48
2023-03-27T09:56:44.370Z,6.57
2023-03-27T09:59:20.153Z,6.60
2023-03-27T10:01:48.252Z,6.58
2023-03-27T10:04:21.982Z,6.45
2023-03-27T10:07:01.938Z,6.42
2023-03-27T10:09:30.061Z,6.28
2023-03-27T10:12:01.021Z,6.19
2023-03-27T10:14:29.239Z,6.13
2023-03-27T10:16:55.850Z,6.10
2023-03-27T10:19:25.222Z,6.10
2023-03-27T10:21:52.118Z,6.18
2023-03-27T10:24:20.256Z,6.16
2023-03-27T10:26:47.752Z,6.23
2023-03-27T10:29:25.608Z,6.29
2023-03-27T10:32:01.671Z,6.23
2023-03-27T10:34:28.147Z,6.25
2023-03-27T10:36:55.369Z,6.30
2023-03-27T10:39:26.580Z,6.33
2023-03-27T10:41:53.236Z,6.30
2023-03-27T10:44:21.400Z,6.21
2023-03-27T10:46:48.165Z,6.13
2023-03-27T10:49:17.347Z,6.13
2023-03-27T10:51:49.845Z,6.19
2023-03-27T10:54:21.242Z,6.26
2023-03-27T10:56:47.782Z,6.24
2023-03-27T10:59:23.390Z,6.22
2023-03-27T11:02:20.958Z,6.21
2023-03-27T11:04:47.619Z,6.29
2023-03-27T11:07:20.797Z,6.33
2023-03-27T11:10:13.611Z,6.28
2023-03-27T11:12:42.136Z,6.26
2023-03-27T11:15:15.440Z,6.36
2023-03-27T11:17:52.940Z,6.38
2023-03-27T11:20:26.453Z,6.48
2023-03-27T11:22:57.620Z,6.56
2023-03-27T11:25:33.122Z,6.57
2023-03-27T11:28:19.657Z,6.65
2023-03-27T11:30:51.276Z,6.62
2023-03-27T11:33:27.724Z,6.66
2023-03-27T11:35:59.164Z,6.70
2023-03-27T11:38:28.824Z,6.71
2023-03-27T11:40:56.694Z,6.71
2023-03-27T11:43:23.639Z,6.79
2023-03-27T11:45:57.379Z,6.81
2023-03-27T11:48:42.737Z,6.73
2023-03-27T11:51:17.500Z,6.69
2023-03-27T11:54:03.478Z,6.67
2023-03-27T11:56:48.612Z,6.56
2023-03-27T11:59:24.395Z,6.46
2023-03-27T12:01:57.393Z,6.51
2023-03-27T12:04:44.591Z,6.45
2023-03-27T12:07:12.276Z,6.48
2023-03-27T12:09:44.854Z,6.35
2023-03-27T12:12:11.275Z,6.35
2023-03-27T12:14:45.969Z,6.27
2023-03-27T12:17:22.032Z,6.20
2023-03-27T12:19:57.306Z,6.20
2023-03-27T12:22:29.789Z,6.20
2023-03-27T12:25:02.099Z,6.18
2023-03-27T12:27:47.516Z,6.09
2023-03-27T12:30:13.939Z,6.02
2023-03-27T12:32:46.720Z,6.06
2023-03-27T12:35:21.630Z,6.04
2023-03-27T12:38:01.532Z,6.05
2023-03-27T12:40:32.236Z,6.04
2023-03-27T12:43:21.715Z,6.05
2023-03-27T12:46:07.111Z,5.85
2023-03-27T12:48:45.635Z,5.83
2023-03-27T12:51:14.280Z,5.84
2023-03-27T12:53:41.069Z,5.88
2023-03-27T12:56:13.516Z,5.89
2023-03-27T12:58:40.432Z,5.95
2023-03-27T13:01:09.302Z,5.89
2023-03-27T13:03:59.007Z,5.84
2023-03-27T13:06:39.236Z,5.73
2023-03-27T13:09:25.378Z,5.65
2023-03-27T13:12:04.364Z,5.47
2023-03-27T13:14:30.888Z,5.25
2023-03-27T13:17:07.098Z,5.27
2023-03-27T13:19:36.404Z,5.35
2023-03-27T13:22:08.874Z,5.23
2023-03-27T13:24:54.395Z,4.99
2023-03-27T13:27:26.822Z,4.97
2023-03-27T13:29:57.943Z,4.77
2023-03-27T13:32:37.960Z,4.66
2023-03-27T13:35:05.124Z,4.54
2023-03-27T13:37:36.929Z,4.52
2023-03-27T13:40:26.684Z,4.53
2023-03-27T13:43:01.995Z,4.58
2023-03-27T13:45:35.969Z,4.65
2023-03-27T13:48:11.637Z,4.59
2023-03-27T13:50:44.333Z,4.59
2023-03-27T13:53:29.658Z,4.46
2023-03-27T13:55:56.812Z,4.28
2023-03-27T13:58:26.239Z,4.10
2023-03-27T14:00:59.097Z,4.16
2023-03-27T14:03:32.003Z,4.03
2023-03-27T14:06:04.809Z,4.01
2023-03-27T14:08:47.420Z,3.92
2023-03-27T14:11:29.895Z,4.03
2023-03-27T14:14:02.482Z,4.16
2023-03-27T14:16:28.985Z,4.01
2023-03-27T14:18:58.510Z,3.91
2023-03-27T14:21:37.755Z,3.95
2023-03-27T14:24:19.791Z,3.81
2023-03-27T14:26:46.385Z,3.73
2023-03-27T14:29:15.482Z,3.58
2023-03-27T14:31:44.301Z,3.43
2023-03-27T14:34:12.243Z,3.33
2023-03-27T14:39:53.293Z,3.14
2023-03-27T14:42:20.663Z,3.13
2023-03-27T14:44:48.045Z,3.13
2023-03-27T14:47:16.144Z,3.17
2023-03-27T14:49:45.690Z,3.14
2023-03-27T14:52:21.912Z,3.11
2023-03-27T14:54:55.293Z,3.11
2023-03-27T14:57:22.811Z,2.96
2023-03-27T14:59:49.490Z,2.98
2023-03-27T15:02:26.709Z,3.07
2023-03-27T15:04:58.230Z,3.12
2023-03-27T15:07:28.568Z,3.05
2023-03-27T15:10:07.394Z,3.00
2023-03-27T15:12:34.297Z,3.04
2023-03-27T15:15:00.734Z,2.90
2023-03-27T15:17:30.807Z,2.62
2023-03-27T15:20:09.659Z,2.55
2023-03-27T15:22:43.285Z,2.60
2023-03-27T15:25:17.853Z,2.49
2023-03-27T15:27:53.040Z,2.38
2023-03-27T15:30:33.358Z,2.38
2023-03-27T15:33:04.426Z,2.34
2023-03-27T15:35:41.788Z,2.34
2023-03-27T15:38:12.441Z,2.15
2023-03-27T15:40:43.047Z,1.96
2023-03-27T15:43:12.437Z,1.98
2023-03-27T15:45:43.444Z,2.11
2023-03-27T15:48:20.556Z,2.13
2023-03-27T15:50:56.070Z,2.08
2023-03-27T15:53:39.573Z,1.99
2023-03-27T15:56:27.228Z,1.99
2023-03-27T15:58:53.714Z,2.05
2023-03-27T16:01:22.544Z,1.97
2023-03-27T16:03:51.488Z,1.96
2023-03-27T16:06:30.767Z,1.99
2023-03-27T16:08:57.757Z,1.97
2023-03-27T16:11:34.597Z,2.09
2023-03-27T16:14:01.314Z,2.09
2023-03-27T16:16:29.636Z,1.89
2023-03-27T16:19:01.686Z,1.84
2023-03-27T16:21:28.307Z,1.97
2023-03-27T16:23:55.406Z,1.92
2023-03-27T16:26:24.743Z,1.87
2023-03-27T16:28:51.408Z,1.76
2023-03-27T16:31:19.635Z,1.55
2023-03-27T16:33:46.418Z,1.57
2023-03-27T16:36:13.571Z,1.62
2023-03-27T16:38:41.999Z,1.64
2023-03-27T16:41:13.365Z,1.52
2023-03-27T16:43:40.391Z,1.55
2023-03-27T16:46:07.270Z,1.59
2023-03-27T16:48:33.764Z,1.55
2023-03-27T16:51:00.446Z,1.54
2023-03-27T16:53:26.880Z,1.51
2023-03-27T16:55:55.807Z,1.54
2023-03-27T16:58:22.547Z,1.52
2023-03-27T17:00:49.050Z,1.42
2023-03-27T17:03:16.381Z,1.32
2023-03-27T17:05:44.139Z,1.29
2023-03-27T17:08:11.418Z,1.29
2023-03-27T17:10:37.917Z,1.32
2023-03-27T17:13:04.390Z,1.33
2023-03-27T17:15:30.870Z,1.35
2023-03-27T17:17:57.325Z,1.32
2023-03-27T17:20:23.788Z,1.12
2023-03-27T17:22:50.402Z,1.01
2023-03-27T17:25:17.706Z,1.04
2023-03-27T17:27:44.155Z,1.00
2023-03-27T17:30:11.095Z,0.96
2023-03-27T17:32:37.571Z,0.93
2023-03-27T17:35:04.535Z,0.95
2023-03-27T17:37:31.013Z,0.88
2023-03-27T17:39:58.415Z,0.79
2023-03-27T17:42:24.864Z,0.86
2023-03-27T17:44:51.300Z,0.83
2023-03-27T17:47:17.769Z,0.73
2023-03-27T17:49:45.125Z,0.76
2023-03-27T17:52:12.472Z,0.77
2023-03-27T17:54:39.130Z,0.86
2023-03-27T17:57:06.230Z,0.90
2023-03-27T17:59:32.901Z,0.91
2023-03-27T18:01:59.482Z,0.86
2023-03-27T18:04:26.437Z,0.81
2023-03-27T18:06:53.208Z,0.91
2023-03-27T18:09:19.795Z,0.98
2023-03-27T18:11:47.082Z,0.87
2023-03-27T18:14:13.589Z,0.91
2023-03-27T18:16:40.197Z,1.00
2023-03-27T18:19:06.840Z,0.99
2023-03-27T18:21:33.308Z,0.92
2023-03-27T18:24:00.327Z,0.93
2023-03-27T18:26:26.864Z,0.93
2023-03-27T18:28:53.422Z,0.86
2023-03-27T18:31:19.995Z,0.84
2023-03-27T18:33:46.549Z,0.79
2023-03-27T18:36:13.157Z,0.73
2023-03-27T18:38:40.643Z,0.79
2023-03-27T18:41:07.484Z,0.73
2023-03-27T18:43:33.946Z,0.66
2023-03-27T18:46:02.220Z,0.66
2023-03-27T18:48:30.385Z,0.65
2023-03-27T18:50:57.997Z,0.65
2023-03-27T18:53:25.038Z,0.71
2023-03-27T18:55:52.149Z,0.72
2023-03-27T18:58:19.449Z,0.79
2023-03-27T19:00:46.034Z,0.81
2023-03-27T19:03:14.612Z,0.74
2023-03-27T19:05:41.325Z,0.70
2023-03-27T19:08:07.978Z,0.64
2023-03-27T19:10:34.994Z,0.48
2023-03-27T19:13:01.950Z,0.39
2023-03-27T19:15:28.402Z,0.48
2023-03-27T19:17:54.894Z,0.54
2023-03-27T19:20:21.674Z,0.45
2023-03-27T19:22:48.212Z,0.40
2023-03-27T19:25:14.866Z,0.39
2023-03-27T19:27:41.306Z,0.35
2023-03-27T19:30:08.681Z,0.31
2023-03-27T19:32:35.193Z,0.26
2023-03-27T19:35:01.679Z,0.24
2023-03-27T19:37:29.745Z,0.27
2023-03-27T19:39:56.424Z,0.27
2023-03-27T19:42:22.950Z,0.24
2023-03-27T19:44:49.486Z,0.35
2023-03-27T19:47:15.952Z,0.34
2023-03-27T19:49:42.693Z,0.39
2023-03-27T19:52:09.825Z,0.47
2023-03-27T19:54:36.265Z,0.45
2023-03-27T19:57:02.814Z,0.45
2023-03-27T19:59:31.166Z,0.42
2023-03-27T20:01:58.086Z,0.45
2023-03-27T20:04:24.732Z,0.48
2023-03-27T20:06:51.341Z,0.48
2023-03-27T20:09:18.981Z,0.50
2023-03-27T20:11:46.644Z,0.46
2023-03-27T20:14:13.243Z,0.46
2023-03-27T20:16:39.756Z,0.44
2023-03-27T20:19:06.407Z,0.42
2023-03-27T20:21:34.247Z,0.36
2023-03-27T20:24:00.943Z,0.36
2023-03-27T20:26:29.606Z,0.31
2023-03-27T20:28:56.079Z,0.22
2023-03-27T20:31:22.642Z,0.26
2023-03-27T20:33:49.919Z,0.28
2023-03-27T20:36:19.760Z,0.37
2023-03-27T20:38:46.498Z,0.34
2023-03-27T20:41:15.879Z,0.35
2023-03-27T20:43:45.843Z,0.37
2023-03-27T20:46:14.071Z,0.37
2023-03-27T20:48:41.694Z,0.39
2023-03-27T20:51:14.732Z,0.37
2023-03-27T20:53:45.973Z,0.43
2023-03-27T20:56:14.259Z,0.32
2023-03-27T20:58:41.670Z,0.27
2023-03-27T21:01:09.874Z,0.33
2023-03-27T21:03:37.713Z,0.27
2023-03-27T21:06:06.003Z,0.19
2023-03-27T21:08:32.636Z,0.28
2023-03-27T21:10:59.063Z,0.25
2023-03-27T21:13:25.577Z,0.27
2023-03-27T21:15:52.081Z,0.32
2023-03-27T21:18:18.705Z,0.28
2023-03-27T21:20:45.431Z,0.16
2023-03-27T21:23:11.878Z,0.18
2023-03-27T21:25:38.557Z,0.24
2023-03-27T21:28:05.331Z,0.23
2023-03-27T21:30:47.278Z,0.26
2023-03-27T21:33:16.143Z,0.16
2023-03-27T21:35:45.752Z,0.17
2023-03-27T21:38:12.864Z,0.14
2023-03-27T21:40:39.559Z,0.19
2023-03-27T21:43:06.886Z,0.10
2023-03-27T21:45:33.355Z,0.11
2023-03-27T21:48:00.290Z,0.18
2023-03-27T21:50:26.889Z,0.23
2023-03-27T21:52:53.339Z,0.21
2023-03-27T21:55:19.777Z,0.15
2023-03-27T21:57:46.330Z,0.16
2023-03-27T22:00:14.510Z,0.15
2023-03-27T22:02:41.409Z,0.12
2023-03-27T22:05:08.156Z,0.07
2023-03-27T22:07:34.661Z,0.02
2023-03-27T22:10:01.560Z,0.04
2023-03-27T22:12:28.041Z,0.00
2023-03-27T22:14:54.499Z,-0.01
2023-03-27T22:17:21.083Z,-0.07
2023-03-27T22:19:47.585Z,-0.02
2023-03-27T22:22:14.221Z,0.00
2023-03-27T22:24:40.881Z,-0.04
2023-03-27T22:27:07.374Z,0.00
2023-03-27T22:29:34.098Z,-0.03
2023-03-27T22:32:00.584Z,0.03
2023-03-27T22:34:27.229Z,0.06
2023-03-27T22:36:53.741Z,0.01
2023-03-27T22:39:20.271Z,-0.03
2023-03-27T22:41:46.719Z,-0.04
2023-03-27T22:44:13.225Z,-0.03
2023-03-27T22:46:39.727Z,-0.09
2023-03-27T22:49:06.321Z,-0.09
2023-03-27T22:51:32.820Z,-0.15
2023-03-27T22:53:59.297Z,-0.13
2023-03-27T22:56:25.817Z,-0.12
2023-03-27T22:58:52.284Z,-0.08
2023-03-27T23:01:18.807Z,-0.10
2023-03-27T23:03:45.522Z,-0.13
2023-03-27T23:06:19.437Z,-0.22
2023-03-27T23:08:46.264Z,-0.22
2023-03-27T23:11:13.795Z,-0.21
2023-03-27T23:13:40.298Z,-0.18
2023-03-27T23:16:07.202Z,-0.15
2023-03-27T23:18:33.698Z,-0.22
2023-03-27T23:21:01.741Z,-0.23
2023-03-27T23:23:29.235Z,-0.27
2023-03-27T23:25:57.681Z,-0.25
2023-03-27T23:28:24.919Z,-0.20
2023-03-27T23:30:55.959Z,-0.23
2023-03-27T23:33:25.102Z,-0.22
2023-03-27T23:35:52.588Z,-0.17
2023-03-27T23:38:19.066Z,-0.24
2023-03-27T23:40:45.523Z,-0.26
2023-03-27T23:43:11.988Z,-0.25
2023-03-27T23:45:38.560Z,-0.22
2023-03-27T23:48:05.247Z,-0.25
2023-03-27T23:50:31.722Z,-0.25
2023-03-27T23:52:58.165Z,-0.22
2023-03-27T23:55:24.593Z,-0.31
2023-03-27T23:57:51.032Z,-0.31
